sensor_id;sensor_type;location;lat;lon;timestamp;P1;durP1;ratioP1;P2;durP2;ratioP2
3712;SDS011;1872;51.406;6.856;2023-04-15T00:00:31;11.17;;;9.00;;
3712;SDS011;1872;51.406;6.856;2023-04-15T00:03:00;12.80;;;9.43;;
3712;SDS011;1872;51.406;6.856;2023-04-15T00:05:33;13.17;;;9.60;;
3712;SDS011;1872;51.406;6.856;2023-04-15T00:07:59;13.80;;;9.00;;
3712;SDS011;1872;51.406;6.856;2023-04-15T00:10:25;10.93;;;9.13;;
3712;SDS011;1872;51.406;6.856;2023-04-15T00:12:54;13.50;;;8.70;;
3712;SDS011;1872;51.406;6.856;2023-04-15T00:15:19;11.60;;;9.30;;
3712;SDS011;1872;51.406;6.856;2023-04-15T00:17:46;12.93;;;8.13;;
3712;SDS011;1872;51.406;6.856;2023-04-15T00:20:13;9.80;;;8.90;;
3712;SDS011;1872;51.406;6.856;2023-04-15T00:22:39;11.87;;;9.20;;
3712;SDS011;1872;51.406;6.856;2023-04-15T00:25:05;10.63;;;9.00;;
3712;SDS011;1872;51.406;6.856;2023-04-15T00:27:31;10.23;;;8.83;;
3712;SDS011;1872;51.406;6.856;2023-04-15T00:29:57;11.80;;;9.27;;
3712;SDS011;1872;51.406;6.856;2023-04-15T00:32:22;11.50;;;9.30;;
3712;SDS011;1872;51.406;6.856;2023-04-15T00:34:48;10.43;;;9.07;;
3712;SDS011;1872;51.406;6.856;2023-04-15T00:37:17;12.37;;;9.53;;
3712;SDS011;1872;51.406;6.856;2023-04-15T00:39:42;11.97;;;8.93;;
3712;SDS011;1872;51.406;6.856;2023-04-15T00:42:09;16.50;;;9.70;;
3712;SDS011;1872;51.406;6.856;2023-04-15T00:44:35;12.43;;;10.63;;
3712;SDS011;1872;51.406;6.856;2023-04-15T00:47:00;12.07;;;9.87;;
3712;SDS011;1872;51.406;6.856;2023-04-15T00:49:34;12.10;;;9.63;;
3712;SDS011;1872;51.406;6.856;2023-04-15T00:52:00;11.07;;;9.20;;
3712;SDS011;1872;51.406;6.856;2023-04-15T00:54:26;13.43;;;10.37;;
3712;SDS011;1872;51.406;6.856;2023-04-15T00:56:52;10.27;;;9.17;;
3712;SDS011;1872;51.406;6.856;2023-04-15T00:59:18;14.53;;;9.93;;
3712;SDS011;1872;51.406;6.856;2023-04-15T01:01:44;12.67;;;10.40;;
3712;SDS011;1872;51.406;6.856;2023-04-15T01:04:11;10.50;;;9.40;;
3712;SDS011;1872;51.406;6.856;2023-04-15T01:06:40;13.67;;;10.40;;
3712;SDS011;1872;51.406;6.856;2023-04-15T01:09:06;10.30;;;9.27;;
3712;SDS011;1872;51.406;6.856;2023-04-15T01:11:34;12.10;;;9.70;;
3712;SDS011;1872;51.406;6.856;2023-04-15T01:14:00;12.20;;;9.70;;
3712;SDS011;1872;51.406;6.856;2023-04-15T01:16:26;11.83;;;9.80;;
3712;SDS011;1872;51.406;6.856;2023-04-15T01:18:52;10.77;;;9.57;;
3712;SDS011;1872;51.406;6.856;2023-04-15T01:21:18;10.30;;;9.30;;
3712;SDS011;1872;51.406;6.856;2023-04-15T01:23:46;9.93;;;8.80;;
3712;SDS011;1872;51.406;6.856;2023-04-15T01:26:14;12.07;;;9.70;;
3712;SDS011;1872;51.406;6.856;2023-04-15T01:28:41;11.47;;;10.27;;
3712;SDS011;1872;51.406;6.856;2023-04-15T01:31:11;12.27;;;10.40;;
3712;SDS011;1872;51.406;6.856;2023-04-15T01:33:38;10.83;;;9.73;;
3712;SDS011;1872;51.406;6.856;2023-04-15T01:36:07;14.53;;;10.67;;
3712;SDS011;1872;51.406;6.856;2023-04-15T01:38:34;12.03;;;10.27;;
3712;SDS011;1872;51.406;6.856;2023-04-15T01:41:00;12.13;;;9.90;;
3712;SDS011;1872;51.406;6.856;2023-04-15T01:43:28;12.20;;;10.37;;
3712;SDS011;1872;51.406;6.856;2023-04-15T01:45:54;13.67;;;10.80;;
3712;SDS011;1872;51.406;6.856;2023-04-15T01:48:20;15.20;;;11.43;;
3712;SDS011;1872;51.406;6.856;2023-04-15T01:50:47;15.40;;;11.03;;
3712;SDS011;1872;51.406;6.856;2023-04-15T01:53:12;13.40;;;11.50;;
3712;SDS011;1872;51.406;6.856;2023-04-15T01:55:39;13.97;;;10.87;;
3712;SDS011;1872;51.406;6.856;2023-04-15T01:58:08;13.40;;;11.90;;
3712;SDS011;1872;51.406;6.856;2023-04-15T02:00:33;13.30;;;11.27;;
3712;SDS011;1872;51.406;6.856;2023-04-15T02:02:59;14.13;;;11.53;;
3712;SDS011;1872;51.406;6.856;2023-04-15T02:05:27;15.13;;;11.53;;
3712;SDS011;1872;51.406;6.856;2023-04-15T02:07:53;15.63;;;12.30;;
3712;SDS011;1872;51.406;6.856;2023-04-15T02:10:18;18.93;;;12.63;;
3712;SDS011;1872;51.406;6.856;2023-04-15T02:12:44;16.10;;;11.70;;
3712;SDS011;1872;51.406;6.856;2023-04-15T02:15:10;15.93;;;11.43;;
3712;SDS011;1872;51.406;6.856;2023-04-15T02:17:38;17.70;;;12.20;;
3712;SDS011;1872;51.406;6.856;2023-04-15T02:20:04;15.07;;;11.60;;
3712;SDS011;1872;51.406;6.856;2023-04-15T02:22:37;14.10;;;12.60;;
3712;SDS011;1872;51.406;6.856;2023-04-15T02:25:03;14.90;;;11.40;;
3712;SDS011;1872;51.406;6.856;2023-04-15T02:27:29;13.33;;;11.00;;
3712;SDS011;1872;51.406;6.856;2023-04-15T02:29:55;16.50;;;11.70;;
3712;SDS011;1872;51.406;6.856;2023-04-15T02:32:20;15.57;;;11.60;;
3712;SDS011;1872;51.406;6.856;2023-04-15T02:34:48;19.43;;;13.53;;
3712;SDS011;1872;51.406;6.856;2023-04-15T02:37:13;15.27;;;11.40;;
3712;SDS011;1872;51.406;6.856;2023-04-15T02:39:40;15.17;;;12.20;;
3712;SDS011;1872;51.406;6.856;2023-04-15T02:42:06;14.30;;;12.80;;
3712;SDS011;1872;51.406;6.856;2023-04-15T02:44:31;19.77;;;13.17;;
3712;SDS011;1872;51.406;6.856;2023-04-15T02:46:59;15.70;;;12.27;;
3712;SDS011;1872;51.406;6.856;2023-04-15T02:49:25;14.70;;;11.10;;
3712;SDS011;1872;51.406;6.856;2023-04-15T02:51:53;16.00;;;12.00;;
3712;SDS011;1872;51.406;6.856;2023-04-15T02:54:19;16.37;;;12.60;;
3712;SDS011;1872;51.406;6.856;2023-04-15T02:56:47;17.47;;;12.40;;
3712;SDS011;1872;51.406;6.856;2023-04-15T02:59:13;16.30;;;13.07;;
3712;SDS011;1872;51.406;6.856;2023-04-15T03:01:38;17.93;;;12.10;;
3712;SDS011;1872;51.406;6.856;2023-04-15T03:04:04;17.87;;;12.83;;
3712;SDS011;1872;51.406;6.856;2023-04-15T03:06:34;16.03;;;12.77;;
3712;SDS011;1872;51.406;6.856;2023-04-15T03:09:00;16.53;;;12.03;;
3712;SDS011;1872;51.406;6.856;2023-04-15T03:11:26;19.87;;;14.63;;
3712;SDS011;1872;51.406;6.856;2023-04-15T03:13:53;18.70;;;13.07;;
3712;SDS011;1872;51.406;6.856;2023-04-15T03:16:18;18.30;;;12.97;;
3712;SDS011;1872;51.406;6.856;2023-04-15T03:18:44;18.07;;;12.83;;
3712;SDS011;1872;51.406;6.856;2023-04-15T03:21:10;19.23;;;12.90;;
3712;SDS011;1872;51.406;6.856;2023-04-15T03:23:38;14.70;;;12.40;;
3712;SDS011;1872;51.406;6.856;2023-04-15T03:26:04;18.30;;;13.67;;
3712;SDS011;1872;51.406;6.856;2023-04-15T03:28:30;16.27;;;13.00;;
3712;SDS011;1872;51.406;6.856;2023-04-15T03:30:56;20.70;;;14.60;;
3712;SDS011;1872;51.406;6.856;2023-04-15T03:33:22;20.30;;;13.37;;
3712;SDS011;1872;51.406;6.856;2023-04-15T03:35:49;20.90;;;14.67;;
3712;SDS011;1872;51.406;6.856;2023-04-15T03:38:15;16.70;;;12.83;;
3712;SDS011;1872;51.406;6.856;2023-04-15T03:40:41;20.73;;;14.20;;
3712;SDS011;1872;51.406;6.856;2023-04-15T03:43:07;19.10;;;14.27;;
3712;SDS011;1872;51.406;6.856;2023-04-15T03:45:33;19.87;;;15.10;;
3712;SDS011;1872;51.406;6.856;2023-04-15T03:47:59;17.53;;;14.10;;
3712;SDS011;1872;51.406;6.856;2023-04-15T03:50:24;20.40;;;14.77;;
3712;SDS011;1872;51.406;6.856;2023-04-15T03:52:51;19.23;;;13.47;;
3712;SDS011;1872;51.406;6.856;2023-04-15T03:55:17;20.87;;;13.97;;
3712;SDS011;1872;51.406;6.856;2023-04-15T03:57:46;20.87;;;15.67;;
3712;SDS011;1872;51.406;6.856;2023-04-15T04:00:14;20.27;;;15.20;;
3712;SDS011;1872;51.406;6.856;2023-04-15T04:02:40;20.63;;;15.10;;
3712;SDS011;1872;51.406;6.856;2023-04-15T04:05:06;19.13;;;15.20;;
3712;SDS011;1872;51.406;6.856;2023-04-15T04:07:34;17.03;;;14.20;;
3712;SDS011;1872;51.406;6.856;2023-04-15T04:10:01;20.00;;;15.17;;
3712;SDS011;1872;51.406;6.856;2023-04-15T04:12:27;22.33;;;15.00;;
3712;SDS011;1872;51.406;6.856;2023-04-15T04:14:53;22.80;;;14.60;;
3712;SDS011;1872;51.406;6.856;2023-04-15T04:17:18;22.93;;;15.50;;
3712;SDS011;1872;51.406;6.856;2023-04-15T04:19:44;20.90;;;16.70;;
3712;SDS011;1872;51.406;6.856;2023-04-15T04:22:10;20.60;;;15.10;;
3712;SDS011;1872;51.406;6.856;2023-04-15T04:24:38;20.17;;;15.23;;
3712;SDS011;1872;51.406;6.856;2023-04-15T04:27:04;22.90;;;16.10;;
3712;SDS011;1872;51.406;6.856;2023-04-15T04:29:32;20.20;;;16.07;;
3712;SDS011;1872;51.406;6.856;2023-04-15T04:31:57;22.13;;;16.30;;
3712;SDS011;1872;51.406;6.856;2023-04-15T04:34:23;21.87;;;16.83;;
3712;SDS011;1872;51.406;6.856;2023-04-15T04:36:51;24.73;;;17.13;;
3712;SDS011;1872;51.406;6.856;2023-04-15T04:39:17;18.83;;;15.07;;
3712;SDS011;1872;51.406;6.856;2023-04-15T04:41:43;19.90;;;16.13;;
3712;SDS011;1872;51.406;6.856;2023-04-15T04:44:11;22.03;;;17.10;;
3712;SDS011;1872;51.406;6.856;2023-04-15T04:46:37;23.67;;;14.67;;
3712;SDS011;1872;51.406;6.856;2023-04-15T04:49:03;19.90;;;14.80;;
3712;SDS011;1872;51.406;6.856;2023-04-15T04:51:28;18.67;;;15.27;;
3712;SDS011;1872;51.406;6.856;2023-04-15T04:53:55;24.80;;;16.43;;
3712;SDS011;1872;51.406;6.856;2023-04-15T04:56:23;23.37;;;16.40;;
3712;SDS011;1872;51.406;6.856;2023-04-15T04:58:49;20.67;;;14.83;;
3712;SDS011;1872;51.406;6.856;2023-04-15T05:01:15;19.17;;;14.20;;
3712;SDS011;1872;51.406;6.856;2023-04-15T05:03:41;19.13;;;15.13;;
3712;SDS011;1872;51.406;6.856;2023-04-15T05:06:09;17.00;;;12.60;;
3712;SDS011;1872;51.406;6.856;2023-04-15T05:08:34;21.40;;;14.77;;
3712;SDS011;1872;51.406;6.856;2023-04-15T05:11:01;18.00;;;13.90;;
3712;SDS011;1872;51.406;6.856;2023-04-15T05:13:27;19.77;;;13.93;;
3712;SDS011;1872;51.406;6.856;2023-04-15T05:15:54;19.03;;;15.07;;
3712;SDS011;1872;51.406;6.856;2023-04-15T05:18:20;18.97;;;14.10;;
3712;SDS011;1872;51.406;6.856;2023-04-15T05:20:46;18.43;;;14.73;;
3712;SDS011;1872;51.406;6.856;2023-04-15T05:23:14;20.43;;;14.97;;
3712;SDS011;1872;51.406;6.856;2023-04-15T05:25:40;18.13;;;13.50;;
3712;SDS011;1872;51.406;6.856;2023-04-15T05:28:06;22.53;;;14.60;;
3712;SDS011;1872;51.406;6.856;2023-04-15T05:30:34;21.70;;;16.17;;
3712;SDS011;1872;51.406;6.856;2023-04-15T05:33:00;19.20;;;14.53;;
3712;SDS011;1872;51.406;6.856;2023-04-15T05:35:26;19.97;;;15.30;;
3712;SDS011;1872;51.406;6.856;2023-04-15T05:37:51;18.70;;;14.33;;
3712;SDS011;1872;51.406;6.856;2023-04-15T05:40:19;20.83;;;15.30;;
3712;SDS011;1872;51.406;6.856;2023-04-15T05:42:45;21.07;;;14.47;;
3712;SDS011;1872;51.406;6.856;2023-04-15T05:45:11;21.37;;;14.70;;
3712;SDS011;1872;51.406;6.856;2023-04-15T05:47:39;22.30;;;14.67;;
3712;SDS011;1872;51.406;6.856;2023-04-15T05:50:05;18.77;;;13.77;;
3712;SDS011;1872;51.406;6.856;2023-04-15T05:52:38;21.83;;;14.70;;
3712;SDS011;1872;51.406;6.856;2023-04-15T05:55:06;17.20;;;13.37;;
3712;SDS011;1872;51.406;6.856;2023-04-15T05:57:32;17.17;;;13.20;;
3712;SDS011;1872;51.406;6.856;2023-04-15T05:59:58;19.43;;;13.53;;
3712;SDS011;1872;51.406;6.856;2023-04-15T06:02:23;19.57;;;14.03;;
3712;SDS011;1872;51.406;6.856;2023-04-15T06:04:50;19.30;;;14.33;;
3712;SDS011;1872;51.406;6.856;2023-04-15T06:07:18;19.73;;;15.20;;
3712;SDS011;1872;51.406;6.856;2023-04-15T06:09:44;22.83;;;15.47;;
3712;SDS011;1872;51.406;6.856;2023-04-15T06:12:10;21.30;;;14.60;;
3712;SDS011;1872;51.406;6.856;2023-04-15T06:14:37;17.70;;;13.33;;
3712;SDS011;1872;51.406;6.856;2023-04-15T06:17:03;17.33;;;13.80;;
3712;SDS011;1872;51.406;6.856;2023-04-15T06:19:29;18.73;;;13.90;;
3712;SDS011;1872;51.406;6.856;2023-04-15T06:21:56;20.10;;;14.93;;
3712;SDS011;1872;51.406;6.856;2023-04-15T06:24:22;18.70;;;14.80;;
3712;SDS011;1872;51.406;6.856;2023-04-15T06:26:48;19.20;;;13.97;;
3712;SDS011;1872;51.406;6.856;2023-04-15T06:29:14;22.10;;;15.90;;
3712;SDS011;1872;51.406;6.856;2023-04-15T06:31:40;20.50;;;13.87;;
3712;SDS011;1872;51.406;6.856;2023-04-15T06:34:06;19.70;;;14.90;;
3712;SDS011;1872;51.406;6.856;2023-04-15T06:36:31;20.00;;;13.93;;
3712;SDS011;1872;51.406;6.856;2023-04-15T06:38:57;17.77;;;15.03;;
3712;SDS011;1872;51.406;6.856;2023-04-15T06:41:23;21.10;;;15.10;;
3712;SDS011;1872;51.406;6.856;2023-04-15T06:43:51;19.87;;;14.47;;
3712;SDS011;1872;51.406;6.856;2023-04-15T06:46:17;17.73;;;13.13;;
3712;SDS011;1872;51.406;6.856;2023-04-15T06:48:42;18.10;;;14.20;;
3712;SDS011;1872;51.406;6.856;2023-04-15T06:51:10;17.57;;;12.70;;
3712;SDS011;1872;51.406;6.856;2023-04-15T06:53:36;19.17;;;14.50;;
3712;SDS011;1872;51.406;6.856;2023-04-15T06:56:06;17.40;;;13.20;;
3712;SDS011;1872;51.406;6.856;2023-04-15T06:58:33;19.50;;;14.20;;
3712;SDS011;1872;51.406;6.856;2023-04-15T07:01:01;18.33;;;14.57;;
3712;SDS011;1872;51.406;6.856;2023-04-15T07:03:28;17.60;;;12.97;;
3712;SDS011;1872;51.406;6.856;2023-04-15T07:05:56;17.23;;;14.03;;
3712;SDS011;1872;51.406;6.856;2023-04-15T07:08:25;13.73;;;11.73;;
3712;SDS011;1872;51.406;6.856;2023-04-15T07:10:50;15.07;;;12.70;;
3712;SDS011;1872;51.406;6.856;2023-04-15T07:13:16;14.70;;;12.33;;
3712;SDS011;1872;51.406;6.856;2023-04-15T07:15:42;12.80;;;10.17;;
3712;SDS011;1872;51.406;6.856;2023-04-15T07:18:07;13.70;;;11.27;;
3712;SDS011;1872;51.406;6.856;2023-04-15T07:20:36;14.70;;;11.57;;
3712;SDS011;1872;51.406;6.856;2023-04-15T07:23:01;15.17;;;11.80;;
3712;SDS011;1872;51.406;6.856;2023-04-15T07:25:27;15.77;;;11.10;;
3712;SDS011;1872;51.406;6.856;2023-04-15T07:27:53;14.20;;;12.20;;
3712;SDS011;1872;51.406;6.856;2023-04-15T07:30:19;12.70;;;10.83;;
3712;SDS011;1872;51.406;6.856;2023-04-15T07:32:44;17.00;;;11.03;;
3712;SDS011;1872;51.406;6.856;2023-04-15T07:35:10;13.70;;;11.07;;
3712;SDS011;1872;51.406;6.856;2023-04-15T07:37:36;12.23;;;10.70;;
3712;SDS011;1872;51.406;6.856;2023-04-15T07:40:02;11.70;;;9.83;;
3712;SDS011;1872;51.406;6.856;2023-04-15T07:42:29;14.00;;;10.13;;
3712;SDS011;1872;51.406;6.856;2023-04-15T07:44:54;17.43;;;11.20;;
3712;SDS011;1872;51.406;6.856;2023-04-15T07:47:21;13.77;;;10.47;;
3712;SDS011;1872;51.406;6.856;2023-04-15T07:49:46;14.80;;;11.30;;
3712;SDS011;1872;51.406;6.856;2023-04-15T07:52:12;11.43;;;10.00;;
3712;SDS011;1872;51.406;6.856;2023-04-15T07:54:37;12.70;;;10.00;;
3712;SDS011;1872;51.406;6.856;2023-04-15T07:57:03;12.50;;;9.07;;
3712;SDS011;1872;51.406;6.856;2023-04-15T07:59:34;12.50;;;10.90;;
3712;SDS011;1872;51.406;6.856;2023-04-15T08:02:00;11.20;;;9.33;;
3712;SDS011;1872;51.406;6.856;2023-04-15T08:04:25;10.10;;;7.80;;
3712;SDS011;1872;51.406;6.856;2023-04-15T08:06:51;9.60;;;8.23;;
3712;SDS011;1872;51.406;6.856;2023-04-15T08:09:17;10.93;;;8.30;;
3712;SDS011;1872;51.406;6.856;2023-04-15T08:11:43;11.47;;;8.37;;
3712;SDS011;1872;51.406;6.856;2023-04-15T08:14:09;9.80;;;7.90;;
3712;SDS011;1872;51.406;6.856;2023-04-15T08:16:34;11.00;;;9.10;;
3712;SDS011;1872;51.406;6.856;2023-04-15T08:19:01;8.50;;;7.30;;
3712;SDS011;1872;51.406;6.856;2023-04-15T08:21:27;8.00;;;7.10;;
3712;SDS011;1872;51.406;6.856;2023-04-15T08:23:55;8.60;;;7.43;;
3712;SDS011;1872;51.406;6.856;2023-04-15T08:26:25;8.63;;;7.17;;
3712;SDS011;1872;51.406;6.856;2023-04-15T08:28:51;8.97;;;6.70;;
3712;SDS011;1872;51.406;6.856;2023-04-15T08:31:17;8.77;;;7.20;;
3712;SDS011;1872;51.406;6.856;2023-04-15T08:33:43;7.60;;;6.90;;
3712;SDS011;1872;51.406;6.856;2023-04-15T08:36:09;8.90;;;6.47;;
3712;SDS011;1872;51.406;6.856;2023-04-15T08:38:36;8.97;;;6.50;;
3712;SDS011;1872;51.406;6.856;2023-04-15T08:41:17;6.93;;;6.23;;
3712;SDS011;1872;51.406;6.856;2023-04-15T08:43:56;6.53;;;5.93;;
3712;SDS011;1872;51.406;6.856;2023-04-15T08:46:23;6.10;;;5.50;;
3712;SDS011;1872;51.406;6.856;2023-04-15T08:48:51;5.90;;;5.17;;
3712;SDS011;1872;51.406;6.856;2023-04-15T08:51:23;5.87;;;5.27;;
3712;SDS011;1872;51.406;6.856;2023-04-15T08:53:52;5.47;;;4.97;;
3712;SDS011;1872;51.406;6.856;2023-04-15T08:56:18;5.40;;;4.70;;
3712;SDS011;1872;51.406;6.856;2023-04-15T08:58:48;5.20;;;4.70;;
3712;SDS011;1872;51.406;6.856;2023-04-15T09:01:15;5.47;;;4.67;;
3712;SDS011;1872;51.406;6.856;2023-04-15T09:03:41;4.83;;;4.33;;
3712;SDS011;1872;51.406;6.856;2023-04-15T09:06:10;4.43;;;4.03;;
3712;SDS011;1872;51.406;6.856;2023-04-15T09:08:36;4.63;;;4.20;;
3712;SDS011;1872;51.406;6.856;2023-04-15T09:11:02;4.97;;;4.47;;
3712;SDS011;1872;51.406;6.856;2023-04-15T09:13:28;5.60;;;4.30;;
3712;SDS011;1872;51.406;6.856;2023-04-15T09:15:56;4.40;;;4.00;;
3712;SDS011;1872;51.406;6.856;2023-04-15T09:18:32;5.63;;;4.60;;
3712;SDS011;1872;51.406;6.856;2023-04-15T09:21:05;5.80;;;4.90;;
3712;SDS011;1872;51.406;6.856;2023-04-15T09:23:40;6.10;;;5.20;;
3712;SDS011;1872;51.406;6.856;2023-04-15T09:26:37;4.70;;;4.30;;
3712;SDS011;1872;51.406;6.856;2023-04-15T09:29:04;5.63;;;4.93;;
3712;SDS011;1872;51.406;6.856;2023-04-15T09:31:31;5.80;;;5.20;;
3712;SDS011;1872;51.406;6.856;2023-04-15T09:33:57;5.10;;;4.60;;
3712;SDS011;1872;51.406;6.856;2023-04-15T09:36:23;5.60;;;4.67;;
3712;SDS011;1872;51.406;6.856;2023-04-15T09:38:56;5.57;;;4.50;;
3712;SDS011;1872;51.406;6.856;2023-04-15T09:41:24;5.20;;;4.70;;
3712;SDS011;1872;51.406;6.856;2023-04-15T09:43:50;7.30;;;6.50;;
3712;SDS011;1872;51.406;6.856;2023-04-15T09:46:16;6.97;;;5.63;;
3712;SDS011;1872;51.406;6.856;2023-04-15T09:48:42;7.80;;;5.83;;
3712;SDS011;1872;51.406;6.856;2023-04-15T09:51:07;6.83;;;5.67;;
3712;SDS011;1872;51.406;6.856;2023-04-15T09:53:34;7.97;;;6.83;;
3712;SDS011;1872;51.406;6.856;2023-04-15T09:56:03;6.80;;;6.20;;
3712;SDS011;1872;51.406;6.856;2023-04-15T09:58:32;7.17;;;6.50;;
3712;SDS011;1872;51.406;6.856;2023-04-15T10:00:59;8.20;;;7.40;;
3712;SDS011;1872;51.406;6.856;2023-04-15T10:03:30;7.93;;;7.20;;
3712;SDS011;1872;51.406;6.856;2023-04-15T10:05:59;8.53;;;6.90;;
3712;SDS011;1872;51.406;6.856;2023-04-15T10:08:26;9.10;;;8.13;;
3712;SDS011;1872;51.406;6.856;2023-04-15T10:10:53;8.00;;;7.30;;
3712;SDS011;1872;51.406;6.856;2023-04-15T10:13:21;9.20;;;8.30;;
3712;SDS011;1872;51.406;6.856;2023-04-15T10:15:57;8.70;;;7.90;;
3712;SDS011;1872;51.406;6.856;2023-04-15T10:18:33;7.83;;;7.13;;
3712;SDS011;1872;51.406;6.856;2023-04-15T10:21:02;12.60;;;8.23;;
3712;SDS011;1872;51.406;6.856;2023-04-15T10:23:29;8.37;;;7.57;;
3712;SDS011;1872;51.406;6.856;2023-04-15T10:25:56;7.93;;;7.13;;
3712;SDS011;1872;51.406;6.856;2023-04-15T10:28:23;8.17;;;7.47;;
3712;SDS011;1872;51.406;6.856;2023-04-15T10:30:51;8.67;;;7.77;;
3712;SDS011;1872;51.406;6.856;2023-04-15T10:33:21;6.80;;;6.10;;
3712;SDS011;1872;51.406;6.856;2023-04-15T10:35:51;7.03;;;6.40;;
3712;SDS011;1872;51.406;6.856;2023-04-15T10:38:31;6.77;;;6.17;;
3712;SDS011;1872;51.406;6.856;2023-04-15T10:41:10;6.60;;;5.73;;
3712;SDS011;1872;51.406;6.856;2023-04-15T10:43:38;6.90;;;6.20;;
3712;SDS011;1872;51.406;6.856;2023-04-15T10:46:04;7.10;;;6.50;;
3712;SDS011;1872;51.406;6.856;2023-04-15T10:48:30;7.50;;;6.40;;
3712;SDS011;1872;51.406;6.856;2023-04-15T10:50:57;7.00;;;6.30;;
3712;SDS011;1872;51.406;6.856;2023-04-15T10:53:27;9.80;;;6.57;;
3712;SDS011;1872;51.406;6.856;2023-04-15T10:55:53;7.50;;;6.00;;
3712;SDS011;1872;51.406;6.856;2023-04-15T10:58:22;6.90;;;6.30;;
3712;SDS011;1872;51.406;6.856;2023-04-15T11:00:50;8.37;;;7.57;;
3712;SDS011;1872;51.406;6.856;2023-04-15T11:03:37;7.87;;;6.47;;
3712;SDS011;1872;51.406;6.856;2023-04-15T11:06:04;6.17;;;5.57;;
3712;SDS011;1872;51.406;6.856;2023-04-15T11:11:18;6.40;;;5.80;;
3712;SDS011;1872;51.406;6.856;2023-04-15T11:13:48;6.37;;;5.57;;
3712;SDS011;1872;51.406;6.856;2023-04-15T11:16:16;5.40;;;4.90;;
3712;SDS011;1872;51.406;6.856;2023-04-15T11:18:42;6.30;;;5.57;;
3712;SDS011;1872;51.406;6.856;2023-04-15T11:21:19;6.33;;;5.70;;
3712;SDS011;1872;51.406;6.856;2023-04-15T11:23:49;6.90;;;5.67;;
3712;SDS011;1872;51.406;6.856;2023-04-15T11:26:19;6.67;;;6.07;;
3712;SDS011;1872;51.406;6.856;2023-04-15T11:28:52;6.00;;;5.40;;
3712;SDS011;1872;51.406;6.856;2023-04-15T11:31:18;6.67;;;5.37;;
3712;SDS011;1872;51.406;6.856;2023-04-15T11:33:58;5.87;;;5.17;;
3712;SDS011;1872;51.406;6.856;2023-04-15T11:36:25;5.57;;;5.00;;
3712;SDS011;1872;51.406;6.856;2023-04-15T11:38:52;5.50;;;5.00;;
3712;SDS011;1872;51.406;6.856;2023-04-15T11:41:21;5.33;;;4.83;;
3712;SDS011;1872;51.406;6.856;2023-04-15T11:43:48;4.93;;;4.43;;
3712;SDS011;1872;51.406;6.856;2023-04-15T11:46:14;5.17;;;4.40;;
3712;SDS011;1872;51.406;6.856;2023-04-15T11:48:44;5.63;;;5.03;;
3712;SDS011;1872;51.406;6.856;2023-04-15T11:51:10;5.73;;;5.23;;
3712;SDS011;1872;51.406;6.856;2023-04-15T11:53:47;5.80;;;5.23;;
3712;SDS011;1872;51.406;6.856;2023-04-15T11:58:47;6.50;;;5.83;;
3712;SDS011;1872;51.406;6.856;2023-04-15T12:01:15;6.27;;;5.67;;
3712;SDS011;1872;51.406;6.856;2023-04-15T12:03:42;6.03;;;5.50;;
3712;SDS011;1872;51.406;6.856;2023-04-15T12:06:18;6.37;;;5.53;;
3712;SDS011;1872;51.406;6.856;2023-04-15T12:14:08;6.93;;;6.23;;
3712;SDS011;1872;51.406;6.856;2023-04-15T12:16:40;6.03;;;5.17;;
3712;SDS011;1872;51.406;6.856;2023-04-15T12:19:11;5.60;;;5.10;;
3712;SDS011;1872;51.406;6.856;2023-04-15T12:21:39;5.00;;;4.50;;
3712;SDS011;1872;51.406;6.856;2023-04-15T12:24:10;5.80;;;5.00;;
3712;SDS011;1872;51.406;6.856;2023-04-15T12:26:42;5.27;;;4.77;;
3712;SDS011;1872;51.406;6.856;2023-04-15T12:29:10;5.03;;;4.63;;
3712;SDS011;1872;51.406;6.856;2023-04-15T12:31:51;4.07;;;3.67;;
3712;SDS011;1872;51.406;6.856;2023-04-15T12:36:54;4.63;;;4.13;;
3712;SDS011;1872;51.406;6.856;2023-04-15T12:39:21;5.17;;;4.63;;
3712;SDS011;1872;51.406;6.856;2023-04-15T12:41:51;5.33;;;4.83;;
3712;SDS011;1872;51.406;6.856;2023-04-15T12:44:18;5.63;;;4.70;;
3712;SDS011;1872;51.406;6.856;2023-04-15T12:46:44;4.23;;;3.80;;
3712;SDS011;1872;51.406;6.856;2023-04-15T12:49:10;4.37;;;3.97;;
3712;SDS011;1872;51.406;6.856;2023-04-15T12:51:38;4.77;;;4.27;;
3712;SDS011;1872;51.406;6.856;2023-04-15T12:54:04;5.20;;;4.80;;
3712;SDS011;1872;51.406;6.856;2023-04-15T12:56:30;5.23;;;4.73;;
3712;SDS011;1872;51.406;6.856;2023-04-15T12:58:55;4.70;;;4.30;;
3712;SDS011;1872;51.406;6.856;2023-04-15T13:01:21;5.30;;;4.80;;
3712;SDS011;1872;51.406;6.856;2023-04-15T13:03:47;4.13;;;3.80;;
3712;SDS011;1872;51.406;6.856;2023-04-15T13:06:16;5.03;;;4.23;;
3712;SDS011;1872;51.406;6.856;2023-04-15T13:08:42;4.60;;;4.17;;
3712;SDS011;1872;51.406;6.856;2023-04-15T13:11:08;5.53;;;4.63;;
3712;SDS011;1872;51.406;6.856;2023-04-15T13:13:34;6.13;;;4.53;;
3712;SDS011;1872;51.406;6.856;2023-04-15T13:16:00;5.30;;;4.80;;
3712;SDS011;1872;51.406;6.856;2023-04-15T13:18:28;5.53;;;4.90;;
3712;SDS011;1872;51.406;6.856;2023-04-15T13:20:55;5.83;;;5.23;;
3712;SDS011;1872;51.406;6.856;2023-04-15T13:23:21;7.30;;;5.70;;
3712;SDS011;1872;51.406;6.856;2023-04-15T13:25:46;6.20;;;5.60;;
3712;SDS011;1872;51.406;6.856;2023-04-15T13:28:12;6.23;;;5.23;;
3712;SDS011;1872;51.406;6.856;2023-04-15T13:30:38;6.37;;;4.90;;
3712;SDS011;1872;51.406;6.856;2023-04-15T13:33:04;5.30;;;4.80;;
3712;SDS011;1872;51.406;6.856;2023-04-15T13:35:38;5.50;;;4.90;;
3712;SDS011;1872;51.406;6.856;2023-04-15T13:38:04;5.67;;;4.63;;
3712;SDS011;1872;51.406;6.856;2023-04-15T13:40:30;5.33;;;4.83;;
3712;SDS011;1872;51.406;6.856;2023-04-15T13:42:56;6.47;;;5.27;;
3712;SDS011;1872;51.406;6.856;2023-04-15T13:45:22;5.97;;;5.37;;
3712;SDS011;1872;51.406;6.856;2023-04-15T13:47:48;7.47;;;5.23;;
3712;SDS011;1872;51.406;6.856;2023-04-15T13:50:15;4.90;;;4.40;;
3712;SDS011;1872;51.406;6.856;2023-04-15T13:52:41;5.17;;;4.27;;
3712;SDS011;1872;51.406;6.856;2023-04-15T13:55:06;4.97;;;4.53;;
3712;SDS011;1872;51.406;6.856;2023-04-15T13:57:35;5.70;;;5.17;;
3712;SDS011;1872;51.406;6.856;2023-04-15T14:00:01;5.73;;;5.00;;
3712;SDS011;1872;51.406;6.856;2023-04-15T14:02:28;5.80;;;4.83;;
3712;SDS011;1872;51.406;6.856;2023-04-15T14:04:54;6.60;;;5.00;;
3712;SDS011;1872;51.406;6.856;2023-04-15T14:07:20;6.30;;;4.77;;
3712;SDS011;1872;51.406;6.856;2023-04-15T14:09:46;5.60;;;5.10;;
3712;SDS011;1872;51.406;6.856;2023-04-15T14:12:12;5.30;;;4.60;;
3712;SDS011;1872;51.406;6.856;2023-04-15T14:14:41;5.17;;;4.67;;
3712;SDS011;1872;51.406;6.856;2023-04-15T14:17:06;4.77;;;3.83;;
3712;SDS011;1872;51.406;6.856;2023-04-15T14:19:33;5.63;;;4.33;;
3712;SDS011;1872;51.406;6.856;2023-04-15T14:21:59;5.47;;;4.97;;
3712;SDS011;1872;51.406;6.856;2023-04-15T14:24:25;6.63;;;4.57;;
3712;SDS011;1872;51.406;6.856;2023-04-15T14:26:51;4.83;;;4.10;;
3712;SDS011;1872;51.406;6.856;2023-04-15T14:29:17;4.80;;;4.40;;
3712;SDS011;1872;51.406;6.856;2023-04-15T14:31:43;5.00;;;4.63;;
3712;SDS011;1872;51.406;6.856;2023-04-15T14:34:10;8.17;;;4.87;;
3712;SDS011;1872;51.406;6.856;2023-04-15T14:36:36;4.60;;;4.20;;
3712;SDS011;1872;51.406;6.856;2023-04-15T14:39:02;5.70;;;4.93;;
3712;SDS011;1872;51.406;6.856;2023-04-15T14:41:30;5.20;;;4.80;;
3712;SDS011;1872;51.406;6.856;2023-04-15T14:43:56;5.30;;;4.80;;
3712;SDS011;1872;51.406;6.856;2023-04-15T14:46:21;5.30;;;4.80;;
3712;SDS011;1872;51.406;6.856;2023-04-15T14:48:47;5.20;;;4.80;;
3712;SDS011;1872;51.406;6.856;2023-04-15T14:51:13;4.20;;;3.80;;
3712;SDS011;1872;51.406;6.856;2023-04-15T14:53:40;4.70;;;4.27;;
3712;SDS011;1872;51.406;6.856;2023-04-15T14:56:08;4.60;;;4.10;;
3712;SDS011;1872;51.406;6.856;2023-04-15T14:58:34;4.43;;;4.03;;
3712;SDS011;1872;51.406;6.856;2023-04-15T15:01:00;4.80;;;4.30;;
3712;SDS011;1872;51.406;6.856;2023-04-15T15:03:26;5.20;;;4.80;;
3712;SDS011;1872;51.406;6.856;2023-04-15T15:05:53;4.47;;;4.07;;
3712;SDS011;1872;51.406;6.856;2023-04-15T15:08:19;5.67;;;5.17;;
3712;SDS011;1872;51.406;6.856;2023-04-15T15:10:45;5.70;;;5.10;;
3712;SDS011;1872;51.406;6.856;2023-04-15T15:13:10;5.57;;;4.90;;
3712;SDS011;1872;51.406;6.856;2023-04-15T15:15:36;5.00;;;4.50;;